Sharpsburg, Georgia
Current Conditions -  °F | °C
As of 12:53 PM on Friday 19 Dec 2014 (Local Time) from KFFC Reporting Station
Clear Clear  
Wind Chill: 53°   Ceiling: Unl
Heat Index: 53°   Visibility: 10mi
Dew Point: 34°   Wind: 5mph
Humidity: 48%   Direction: NA
Pressure: 30.14"   Gusts: NA
Location:  33.34°N, 84.65°W
Report Text: KFFC 191753Z AUTO VRB04KT 10SM CLR 12/01 A3014 RMK AO2 SLP211 T01170011 10117 20011 58011
Loading
Personal Weather Stations






























Interactive Weather Map New forecast layout! Learn more

10-Day Weather Forecast

Advertisements
Track Severe Weather on mobile